• Join FlightAware (Why Join?)
  • Login
  • US Flag 
01:52AM EDT


 

Airport Tracker/Info


-or-


 

Live Flight TrackerFlight Track Log ✈ USC392 ✈ 07-May-2013 ✈ KBHM - KPDK

Flight Track Log - Related Links

Times and Time Zones

All times are in EDT time to prevent confusion due to time zone crossing. See the USC392 flight status page for this flight to view local times or setup timezone preferences in your user account.

Time Position Orientation Groundspeed Altitude Reporting Facility
EDT Latitude Longitude Course Direction KTS MPH feet Rate Location/Type
08:59PM 33.5617 -86.7586 57° Northeast 90 104 1,000  Level Atlanta Center
09:00PM 33.5747 -86.7342 57° Northeast 101 116 1,900 1,080 Climbing Atlanta Center
09:01PM 33.5983 -86.7050 46° Northeast 113 130 3,100 1,080 Climbing Atlanta Center
09:02PM 33.6197 -86.6806 44° Northeast 103 119 4,200 1,020 Climbing Atlanta Center
09:03PM 33.6392 -86.6536 49° Northeast 109 125 5,200 960 Climbing Atlanta Center
09:04PM 33.6606 -86.6269 46° Northeast 107 123 6,200 900 Climbing Atlanta Center
09:05PM 33.6781 -86.5925 59° Northeast 120 138 7,100 840 Climbing Atlanta Center
09:06PM 33.6892 -86.5578 69° East 118 136 8,000 840 Climbing Atlanta Center
09:07PM 33.7025 -86.5258 63° Northeast 116 133 8,800 420 Climbing Atlanta Center
09:08PM 33.7200 -86.4839 63° Northeast 144 166 8,900  Climbing Atlanta Center
09:09PM 33.7375 -86.4394 65° Northeast 163 188 8,900  Level Atlanta Center
09:10PM 33.7592 -86.3900 62° Northeast 182 209 8,900  Level Atlanta Center
09:11PM 33.7811 -86.3406 62° Northeast 177 204 8,900  Level Atlanta Center
09:12PM 33.8008 -86.2911 64° Northeast 170 196 8,900  Level Atlanta Center
09:13PM 33.8164 -86.2392 70° East 170 196 8,900  Level Atlanta Center
09:14PM 33.8381 -86.1897 62° Northeast 170 196 8,900  Level Atlanta Center
09:15PM 33.8556 -86.1400 67° East 170 196 8,900  Level Atlanta Center
09:16PM 33.8731 -86.0906 67° East 165 190 8,900  Level Atlanta Center
09:17PM 33.8928 -86.0408 64° Northeast 165 190 8,900  Level Atlanta Center
09:18PM 33.9103 -85.9861 69° East 160 184 8,900  Level Atlanta Center
09:19PM 33.9256 -85.9414 68° East 160 184 8,900  Level Atlanta Center
09:20PM 33.9431 -85.8917 67° East 155 178 8,900  Level Atlanta Center
09:21PM 33.9625 -85.8447 63° Northeast 155 178 8,900 -60 Level Atlanta Center
09:22PM 33.9781 -85.7897 71° East 155 178 8,800 -60 Descending Atlanta Center
09:23PM 33.9747 -85.7322 94° East 150 173 8,800  Level Atlanta Center
09:24PM 33.9733 -85.6769 92° East 156 180 8,800 -120 Level Atlanta Center
09:25PM 33.9742 -85.6194 89° East 161 185 8,600 -300 Descending Atlanta Center
09:26PM 33.9706 -85.5617 94° East 161 185 8,200 -420 Descending Atlanta Center
09:27PM 33.9714 -85.5017 89° East 166 191 7,800 -420 Descending Atlanta Center
09:28PM 33.9700 -85.4414 92° East 171 197 7,400 -420 Descending Atlanta Center
09:29PM 33.9728 -85.3814 87° East 171 197 7,000 -420 Descending Atlanta Center
09:30PM 33.9711 -85.3289 92° East 176 203 6,600 -420 Descending Atlanta Center
09:31PM 33.9697 -85.2686 92° East 176 203 6,200 -420 Descending Atlanta Center
09:32PM 33.9725 -85.2061 87° East 182 209 5,800 -420 Descending Atlanta Center
09:33PM 33.9708 -85.1458 92° East 177 204 5,400 -360 Descending Atlanta Center
09:34PM 33.9694 -85.0858 92° East 177 204 5,100 -300 Descending Atlanta Center
09:35PM 33.9614 -85.0256 99° East 177 204 4,800 -120 Descending Atlanta Center
09:36PM 33.9578 -84.9656 94° East 177 204 4,900  Climbing Atlanta Center
09:37PM 33.9500 -84.9003 98° East 177 204 4,900  Level Atlanta Center
09:38PM 33.9439 -84.8450 98° East 177 204 4,900  Level Atlanta Center
09:40PM 33.9333 -84.7167 96° East 176 203 4,900 -240 Level Atlanta TRACON
09:41PM 33.9333 -84.6500 90° East 193 222 4,200 -600 Descending Atlanta TRACON
09:42PM 33.9167 -84.5833 107° East 190 219 3,700 -480 Descending Atlanta TRACON
09:43PM 33.9167 -84.5167 90° East 189 217 3,300 -300 Descending Atlanta TRACON
09:44PM 33.9167 -84.4667 90° East 183 211 3,200 -300 Descending Atlanta TRACON
09:45PM 33.9000 -84.4000 107° East 190 219 2,800 -420 Descending Atlanta TRACON
09:46PM 33.9000 -84.3333 90° East 195 224 2,400 -540 Descending Atlanta TRACON
09:47PM 33.8833 -84.2833 112° Southeast 177 204 1,700 -720 Descending Atlanta TRACON
09:49PM 33.8667 -84.3000 90° East  Level FlightAware Approximate
09:56PM 33.8756 -84.3020 90° East  Level Estimated
09:57PM 33.8756 -84.3020 90° East  Level Estimated
09:58PM 33.8756 -84.3020 90° East  Level Estimated
09:59PM 33.8756 -84.3020 90° East  Level Estimated